Time;durP1;ratioP1;P1;durP2;ratioP2;P2;SDS_P1;SDS_P2;PMS_P1;PMS_P2;Temp;Humidity;BMP_temperature;BMP_pressure;BME280_temperature;BME280_humidity;BME280_pressure;Samples;Min_cycle;Max_cycle;Signal;HPM_P1;HPM_P2
2021/10/19 00:00:41;;;;;;;18.00;8.73;;;5.20;99.90;;;;;;4172572;28;20270;-55
2021/10/19 00:02:43;;;;;;;25.10;11.00;;;5.10;99.90;;;;;;4174036;28;20332;-60
2021/10/19 00:04:44;;;;;;;17.80;9.77;;;5.10;99.90;;;;;;4172323;28;20734;-59
2021/10/19 00:06:45;;;;;;;21.50;10.10;;;5.10;99.90;;;;;;4172380;28;20340;-57
2021/10/19 00:08:46;;;;;;;21.20;10.07;;;5.10;99.90;;;;;;4172567;28;20262;-59
2021/10/19 00:10:47;;;;;;;20.23;9.87;;;5.10;99.90;;;;;;4173393;28;20324;-58
2021/10/19 00:12:48;;;;;;;24.23;11.70;;;5.10;99.90;;;;;;4172512;28;20270;-58
2021/10/19 00:14:50;;;;;;;23.27;11.23;;;5.00;99.90;;;;;;4173363;28;20270;-59
2021/10/19 00:16:51;;;;;;;23.23;11.23;;;5.10;99.90;;;;;;4172978;28;20316;-56
2021/10/19 00:18:52;;;;;;;18.97;11.03;;;5.00;99.90;;;;;;4172910;28;20319;-58
2021/10/19 00:20:54;;;;;;;19.63;10.40;;;5.00;99.90;;;;;;4174023;28;20681;-59
2021/10/19 00:22:55;;;;;;;23.17;10.53;;;5.00;99.90;;;;;;4175460;28;20336;-54
2021/10/19 00:24:57;;;;;;;18.33;8.93;;;5.00;99.90;;;;;;4175666;28;20270;-60
2021/10/19 00:26:58;;;;;;;20.47;9.77;;;5.00;99.90;;;;;;4175345;28;21173;-60
2021/10/19 00:28:59;;;;;;;19.60;9.70;;;5.00;99.90;;;;;;4176342;28;20300;-54
2021/10/19 00:31:01;;;;;;;18.10;9.70;;;5.00;99.90;;;;;;4175442;28;20297;-58
2021/10/19 00:33:02;;;;;;;18.07;9.27;;;5.00;99.90;;;;;;4176149;28;20278;-59
2021/10/19 00:35:03;;;;;;;19.00;9.13;;;5.00;99.90;;;;;;4174458;28;20269;-58
2021/10/19 00:37:04;;;;;;;13.80;8.77;;;4.90;99.90;;;;;;4176420;28;20309;-58
2021/10/19 00:39:05;;;;;;;16.77;8.73;;;4.90;99.90;;;;;;4174576;28;20689;-60
2021/10/19 00:41:07;;;;;;;15.53;8.90;;;4.90;99.90;;;;;;4175881;28;20278;-58
2021/10/19 00:43:08;;;;;;;17.63;9.07;;;4.90;99.90;;;;;;4174747;28;20262;-52
2021/10/19 00:45:10;;;;;;;15.37;8.03;;;4.90;99.90;;;;;;4175460;28;20258;-58
2021/10/19 00:47:18;;;;;;;15.03;8.20;;;4.90;99.90;;;;;;4175381;28;20274;-58
2021/10/19 00:49:20;;;;;;;14.43;7.97;;;4.90;99.90;;;;;;4174273;28;20281;-59
2021/10/19 00:51:22;;;;;;;20.50;9.47;;;4.90;99.90;;;;;;4175395;28;20360;-57
2021/10/19 00:53:23;;;;;;;17.77;8.47;;;4.80;99.90;;;;;;4175378;28;20661;-59
2021/10/19 00:55:25;;;;;;;14.77;8.07;;;4.80;99.90;;;;;;4174802;28;20269;-59
2021/10/19 00:57:26;;;;;;;14.13;7.50;;;4.80;99.90;;;;;;4174326;28;20278;-54
2021/10/19 00:59:28;;;;;;;16.57;8.17;;;4.80;99.90;;;;;;4175738;28;20290;-56
2021/10/19 01:01:29;;;;;;;15.80;8.70;;;4.80;99.90;;;;;;4174796;28;20324;-59
2021/10/19 01:03:30;;;;;;;15.03;9.03;;;4.70;99.90;;;;;;4175520;28;20270;-58
2021/10/19 01:05:31;;;;;;;18.73;10.07;;;4.70;99.90;;;;;;4174201;28;20343;-59
2021/10/19 01:07:32;;;;;;;16.97;9.43;;;4.60;99.90;;;;;;4175986;28;20835;-60
2021/10/19 01:09:37;;;;;;;17.33;9.33;;;4.50;99.90;;;;;;4173841;28;20343;-57
2021/10/19 01:11:38;;;;;;;16.50;9.43;;;4.40;99.90;;;;;;4175730;28;20262;-59
2021/10/19 01:13:39;;;;;;;18.13;9.97;;;4.40;99.90;;;;;;4174747;28;20270;-58
2021/10/19 01:15:42;;;;;;;19.30;9.87;;;4.40;99.90;;;;;;4175987;28;20324;-59
2021/10/19 01:17:45;;;;;;;19.87;9.87;;;4.30;99.90;;;;;;4174630;28;20278;-57
2021/10/19 01:19:50;;;;;;;21.03;9.77;;;4.20;99.90;;;;;;4174339;28;20266;-57
2021/10/19 01:21:56;;;;;;;18.80;10.07;;;4.20;99.90;;;;;;4173706;28;20343;-56
2021/10/19 01:23:57;;;;;;;22.33;10.67;;;4.20;99.90;;;;;;4174744;28;20793;-59
2021/10/19 01:26:04;;;;;;;19.20;10.40;;;4.10;99.90;;;;;;4174985;28;20258;-58
2021/10/19 01:28:08;;;;;;;22.30;10.47;;;4.10;99.90;;;;;;4157458;28;20377;-59
2021/10/19 01:30:10;;;;;;;22.43;10.57;;;4.10;99.90;;;;;;4173593;28;20355;-58
2021/10/19 01:32:11;;;;;;;19.57;9.37;;;4.10;99.90;;;;;;4174289;28;20270;-58
2021/10/19 01:34:12;;;;;;;16.77;9.23;;;4.10;99.90;;;;;;4174908;28;20312;-57
2021/10/19 01:36:13;;;;;;;16.63;9.17;;;4.10;99.90;;;;;;4173663;28;20270;-56
2021/10/19 01:38:20;;;;;;;16.30;8.50;;;4.10;99.90;;;;;;4175171;28;20258;-57
2021/10/19 01:40:21;;;;;;;17.03;8.57;;;4.10;99.90;;;;;;4173710;28;20278;-58
2021/10/19 01:42:22;;;;;;;16.13;8.37;;;4.10;99.90;;;;;;4175507;28;20300;-55
2021/10/19 01:44:23;;;;;;;13.80;8.57;;;4.10;99.90;;;;;;4174390;28;20266;-59
2021/10/19 01:46:25;;;;;;;17.93;8.63;;;4.10;99.90;;;;;;4175496;28;20745;-57
2021/10/19 01:48:29;;;;;;;15.43;8.70;;;4.10;99.90;;;;;;4173180;28;20288;-58
2021/10/19 01:50:30;;;;;;;17.50;9.20;;;4.10;99.90;;;;;;4174847;28;20778;-57
2021/10/19 01:52:32;;;;;;;17.83;9.33;;;4.00;99.90;;;;;;4173554;28;20758;-54
2021/10/19 01:54:33;;;;;;;16.37;9.40;;;3.90;99.90;;;;;;4175227;28;20316;-54
2021/10/19 01:56:34;;;;;;;15.37;9.00;;;3.90;99.90;;;;;;4174059;28;20254;-57
2021/10/19 01:58:35;;;;;;;17.53;9.53;;;3.90;99.90;;;;;;4174838;28;20335;-58
2021/10/19 02:00:37;;;;;;;16.27;9.23;;;3.80;99.90;;;;;;4174227;28;20258;-59
2021/10/19 02:02:40;;;;;;;18.03;8.80;;;3.80;99.90;;;;;;4174225;28;20328;-59
2021/10/19 02:04:41;;;;;;;15.87;8.77;;;3.80;99.90;;;;;;4174622;28;20312;-57
2021/10/19 02:06:42;;;;;;;18.47;8.90;;;3.80;99.90;;;;;;4173900;28;20278;-59
2021/10/19 02:08:43;;;;;;;14.73;8.47;;;3.90;99.90;;;;;;4173836;28;20266;-58
2021/10/19 02:10:45;;;;;;;13.70;7.97;;;3.80;99.90;;;;;;4186560;28;20309;-57
2021/10/19 02:12:46;;;;;;;19.03;8.77;;;3.80;99.90;;;;;;4191672;28;20276;-59
2021/10/19 02:14:47;;;;;;;14.77;8.40;;;3.90;99.90;;;;;;4188818;28;20331;-55
2021/10/19 02:16:48;;;;;;;12.53;7.73;;;3.90;99.90;;;;;;4175567;28;20340;-59
2021/10/19 02:18:49;;;;;;;17.00;8.20;;;3.90;99.90;;;;;;4173521;28;20262;-58
2021/10/19 02:20:50;;;;;;;13.47;7.57;;;3.90;99.90;;;;;;4174858;28;20286;-57
2021/10/19 02:22:53;;;;;;;14.70;8.13;;;3.90;99.90;;;;;;4173510;28;20321;-58
2021/10/19 02:24:55;;;;;;;13.50;7.47;;;4.00;99.90;;;;;;4174670;28;20327;-60
2021/10/19 02:26:56;;;;;;;11.90;6.97;;;3.90;99.90;;;;;;4173498;28;20328;-59
2021/10/19 02:28:57;;;;;;;15.13;8.33;;;4.00;99.90;;;;;;4174454;28;20270;-59
2021/10/19 02:30:59;;;;;;;13.73;8.27;;;4.00;99.90;;;;;;4173125;28;20306;-58
2021/10/19 02:33:00;;;;;;;18.13;9.00;;;4.00;99.90;;;;;;4173566;28;20327;-58
2021/10/19 02:35:01;;;;;;;21.10;10.43;;;3.90;99.90;;;;;;4173311;28;20320;-57
2021/10/19 02:37:03;;;;;;;14.77;8.23;;;4.00;99.90;;;;;;4173947;28;20270;-58
2021/10/19 02:39:06;;;;;;;15.57;8.57;;;4.00;99.90;;;;;;4173993;28;20288;-59
2021/10/19 02:41:07;;;;;;;13.77;8.17;;;3.90;99.90;;;;;;4173427;28;20250;-58
2021/10/19 02:43:08;;;;;;;15.17;8.60;;;3.90;99.90;;;;;;4173394;28;20324;-58
2021/10/19 02:45:11;;;;;;;14.60;8.53;;;3.80;99.90;;;;;;4171581;28;20327;-56
2021/10/19 02:47:12;;;;;;;16.23;9.20;;;3.80;99.90;;;;;;4174741;28;20281;-59
2021/10/19 02:49:13;;;;;;;14.43;8.70;;;3.70;99.90;;;;;;4173435;28;20315;-57
2021/10/19 02:51:14;;;;;;;18.07;9.60;;;3.70;99.90;;;;;;4173999;28;20294;-58
2021/10/19 02:53:15;;;;;;;14.07;7.93;;;3.70;99.90;;;;;;4172691;28;20331;-57
2021/10/19 02:55:17;;;;;;;13.70;7.33;;;3.60;99.90;;;;;;4173896;28;20286;-59
2021/10/19 02:57:21;;;;;;;12.13;7.17;;;3.60;99.90;;;;;;4172609;28;20347;-59
2021/10/19 02:59:22;;;;;;;14.63;8.07;;;3.60;99.90;;;;;;4173021;28;20286;-60
2021/10/19 03:01:23;;;;;;;14.77;6.80;;;3.60;99.90;;;;;;4173086;28;20724;-58
2021/10/19 03:03:25;;;;;;;16.17;7.43;;;3.60;99.90;;;;;;4173026;28;20328;-60
2021/10/19 03:05:27;;;;;;;15.47;7.93;;;3.70;99.90;;;;;;4172493;28;20283;-60
2021/10/19 03:07:28;;;;;;;11.50;6.80;;;3.70;99.90;;;;;;4173366;28;20335;-58
2021/10/19 03:09:29;;;;;;;17.03;7.50;;;3.70;99.90;;;;;;4173299;28;20266;-55
2021/10/19 03:11:30;;;;;;;11.60;6.67;;;3.70;99.90;;;;;;4172625;28;20302;-58
2021/10/19 03:13:32;;;;;;;13.30;7.57;;;3.70;99.90;;;;;;4173186;28;20348;-58
2021/10/19 03:15:33;;;;;;;14.70;7.23;;;3.70;99.90;;;;;;4155484;28;20312;-57
2021/10/19 03:17:34;;;;;;;14.80;7.43;;;3.80;99.90;;;;;;4174288;28;20269;-59
2021/10/19 03:19:35;;;;;;;9.43;6.17;;;3.80;99.90;;;;;;4171966;28;20343;-59
2021/10/19 03:21:36;;;;;;;11.37;6.70;;;3.80;99.90;;;;;;4173683;28;20282;-57
2021/10/19 03:23:37;;;;;;;12.23;6.67;;;3.80;99.90;;;;;;4171458;28;20311;-56
2021/10/19 03:25:38;;;;;;;18.63;8.50;;;3.80;99.90;;;;;;4174240;28;20308;-59
2021/10/19 03:27:39;;;;;;;13.03;7.23;;;3.70;99.90;;;;;;4172319;28;20327;-60
2021/10/19 03:29:41;;;;;;;13.10;7.47;;;3.70;99.90;;;;;;4174095;28;20327;-53
2021/10/19 03:31:42;;;;;;;12.43;7.30;;;3.70;99.90;;;;;;4172152;28;20360;-58
2021/10/19 03:33:43;;;;;;;11.97;7.07;;;3.70;99.90;;;;;;4172377;28;20286;-58
2021/10/19 03:35:44;;;;;;;14.70;7.37;;;3.70;99.90;;;;;;4172853;28;20269;-58
2021/10/19 03:37:45;;;;;;;12.73;6.83;;;3.60;99.90;;;;;;4172482;28;20266;-59
2021/10/19 03:39:46;;;;;;;12.70;6.77;;;3.60;99.90;;;;;;4173150;28;20270;-58
2021/10/19 03:41:47;;;;;;;15.30;6.50;;;3.60;99.90;;;;;;4172694;28;20274;-59
2021/10/19 03:43:49;;;;;;;14.00;7.53;;;3.60;99.90;;;;;;4172413;28;20313;-59
2021/10/19 03:45:50;;;;;;;15.70;7.40;;;3.60;99.90;;;;;;4175616;28;20339;-59
2021/10/19 03:47:51;;;;;;;13.33;7.63;;;3.60;99.90;;;;;;4174149;28;20271;-58
2021/10/19 03:49:52;;;;;;;15.53;7.23;;;3.60;99.90;;;;;;4171585;28;20666;-59
2021/10/19 03:51:53;;;;;;;13.40;7.33;;;3.60;99.90;;;;;;4173105;28;20355;-56
2021/10/19 03:53:54;;;;;;;14.07;7.70;;;3.60;99.90;;;;;;4172674;28;20328;-56
2021/10/19 03:55:56;;;;;;;12.13;6.83;;;3.60;99.90;;;;;;4174561;28;20684;-57
2021/10/19 03:57:57;;;;;;;15.17;8.00;;;3.50;99.90;;;;;;4175201;28;20282;-55
2021/10/19 03:59:59;;;;;;;12.53;7.43;;;3.60;99.90;;;;;;4176127;28;20308;-56
2021/10/19 04:02:00;;;;;;;15.83;7.57;;;3.70;99.90;;;;;;4175010;28;20607;-57
2021/10/19 04:04:01;;;;;;;14.90;7.37;;;3.70;99.90;;;;;;4176167;28;20269;-59
2021/10/19 04:06:03;;;;;;;13.40;6.63;;;3.80;99.90;;;;;;4175602;28;20730;-56
2021/10/19 04:08:04;;;;;;;16.13;6.60;;;3.80;99.90;;;;;;4175517;28;20270;-59
2021/10/19 04:10:06;;;;;;;12.27;6.97;;;3.80;99.90;;;;;;4175990;28;20262;-59
2021/10/19 04:12:08;;;;;;;12.33;6.93;;;3.80;99.90;;;;;;4174417;28;20293;-57
2021/10/19 04:14:10;;;;;;;10.40;6.37;;;3.90;99.90;;;;;;4175539;28;20324;-55
2021/10/19 04:16:11;;;;;;;12.13;7.30;;;3.90;99.90;;;;;;4174426;28;20327;-59
2021/10/19 04:18:12;;;;;;;11.20;6.43;;;3.90;99.90;;;;;;4176244;28;20262;-57
2021/10/19 04:20:13;;;;;;;10.93;6.50;;;3.90;99.90;;;;;;4173649;28;20911;-55
2021/10/19 04:22:14;;;;;;;10.33;6.20;;;3.90;99.90;;;;;;4175649;28;20328;-55
2021/10/19 04:24:16;;;;;;;8.63;5.70;;;3.90;99.90;;;;;;4174288;28;20258;-57
2021/10/19 04:26:17;;;;;;;9.47;5.73;;;3.80;99.90;;;;;;4175168;28;20449;-57
2021/10/19 04:28:18;;;;;;;14.90;7.23;;;3.80;99.90;;;;;;4173976;28;20395;-57
2021/10/19 04:30:20;;;;;;;10.97;6.37;;;3.80;99.90;;;;;;4175526;28;20866;-58
2021/10/19 04:32:22;;;;;;;10.97;5.97;;;3.80;99.90;;;;;;4174414;28;20269;-54
2021/10/19 04:34:23;;;;;;;13.23;6.03;;;3.70;99.90;;;;;;4175450;28;20701;-55
2021/10/19 04:36:24;;;;;;;15.30;7.33;;;3.70;99.90;;;;;;4154717;28;20302;-55
2021/10/19 04:38:25;;;;;;;15.43;6.77;;;3.60;99.90;;;;;;4173765;28;20270;-57
2021/10/19 04:40:26;;;;;;;15.93;7.50;;;3.60;99.90;;;;;;4173804;28;20352;-58
2021/10/19 04:42:33;;;;;;;13.50;7.60;;;3.60;99.90;;;;;;4172634;28;20347;-58
2021/10/19 04:44:34;;;;;;;15.80;7.33;;;3.50;99.90;;;;;;4173361;28;20316;-59
2021/10/19 04:46:35;;;;;;;17.43;8.13;;;3.50;99.90;;;;;;4168062;28;20332;-58
2021/10/19 04:48:36;;;;;;;15.20;9.03;;;3.40;99.90;;;;;;4170902;28;20335;-53
2021/10/19 04:50:38;;;;;;;20.00;9.60;;;3.30;99.90;;;;;;4166434;28;20331;-58
2021/10/19 04:52:40;;;;;;;13.17;7.93;;;3.30;99.90;;;;;;4175463;28;20712;-61
2021/10/19 04:54:41;;;;;;;16.67;9.07;;;3.20;99.90;;;;;;4173712;28;20665;-60
2021/10/19 04:56:42;;;;;;;19.63;8.63;;;3.20;99.90;;;;;;4175314;28;20274;-57
2021/10/19 04:58:43;;;;;;;14.47;8.57;;;3.30;99.90;;;;;;4173678;28;21430;-58
2021/10/19 05:00:47;;;;;;;18.77;8.17;;;3.40;99.90;;;;;;4174489;28;20316;-56
2021/10/19 05:02:49;;;;;;;17.03;7.80;;;3.50;99.90;;;;;;4174144;28;20284;-60
2021/10/19 05:04:50;;;;;;;14.00;7.23;;;3.70;99.90;;;;;;4175157;28;20662;-58
2021/10/19 05:06:51;;;;;;;19.10;7.00;;;3.80;99.90;;;;;;4173611;28;20258;-59
2021/10/19 05:08:53;;;;;;;14.50;7.00;;;4.10;99.90;;;;;;4155857;28;20316;-57
2021/10/19 05:10:54;;;;;;;13.40;7.63;;;4.30;99.90;;;;;;4174111;28;20310;-59
2021/10/19 05:12:55;;;;;;;13.80;6.93;;;4.50;99.90;;;;;;4174286;28;20323;-59
2021/10/19 05:14:57;;;;;;;15.53;7.57;;;4.70;99.90;;;;;;4175072;28;20371;-58
2021/10/19 05:16:58;;;;;;;13.77;6.97;;;4.90;99.90;;;;;;4174111;28;20384;-58
2021/10/19 05:18:59;;;;;;;14.73;7.87;;;5.10;99.90;;;;;;4175564;28;20886;-58
2021/10/19 05:21:01;;;;;;;12.77;6.10;;;5.30;99.90;;;;;;4173269;28;20270;-58
2021/10/19 05:23:02;;;;;;;14.13;7.43;;;5.60;99.90;;;;;;4175405;28;20757;-58
2021/10/19 05:25:04;;;;;;;12.43;6.97;;;5.80;99.90;;;;;;4173799;28;20584;-60
2021/10/19 05:27:05;;;;;;;13.77;7.70;;;6.10;99.90;;;;;;4174570;28;21151;-58
2021/10/19 05:29:06;;;;;;;16.77;7.67;;;6.30;99.90;;;;;;4172938;28;20041;-59
2021/10/19 05:31:07;;;;;;;11.93;6.70;;;6.50;99.90;;;;;;4174554;28;20344;-57
2021/10/19 05:33:09;;;;;;;9.53;6.50;;;6.50;99.90;;;;;;4173629;28;20025;-57
2021/10/19 05:35:10;;;;;;;11.37;7.33;;;6.90;99.90;;;;;;4174044;28;20154;-58
2021/10/19 05:37:11;;;;;;;13.93;6.80;;;7.40;99.90;;;;;;4173781;28;20099;-60
2021/10/19 05:39:15;;;;;;;10.47;6.43;;;7.40;99.90;;;;;;4173041;28;20087;-58
2021/10/19 05:41:16;;;;;;;8.93;5.73;;;7.60;99.90;;;;;;4174033;28;20013;-58
2021/10/19 05:43:17;;;;;;;12.93;7.53;;;7.70;99.90;;;;;;4174048;28;20469;-59
2021/10/19 05:45:18;;;;;;;12.80;7.10;;;7.60;99.90;;;;;;4174650;28;20032;-58
2021/10/19 05:47:20;;;;;;;14.20;6.47;;;7.50;99.90;;;;;;4173534;28;20061;-60
2021/10/19 05:49:21;;;;;;;12.40;6.27;;;7.50;99.90;;;;;;4174311;28;20374;-60
2021/10/19 05:51:22;;;;;;;9.07;6.47;;;7.60;99.90;;;;;;4173392;28;20090;-58
2021/10/19 05:53:23;;;;;;;10.43;5.57;;;7.90;99.90;;;;;;4174509;28;20092;-59
2021/10/19 05:55:24;;;;;;;8.67;5.67;;;8.00;99.90;;;;;;4173620;28;20079;-59
2021/10/19 05:57:25;;;;;;;14.33;5.83;;;8.10;99.90;;;;;;4174118;28;20036;-59
2021/10/19 05:59:26;;;;;;;13.13;6.17;;;8.10;99.90;;;;;;4172509;28;20485;-56
2021/10/19 06:01:28;;;;;;;11.67;6.37;;;7.80;99.90;;;;;;4174965;28;20029;-60
2021/10/19 06:03:29;;;;;;;9.40;5.47;;;7.60;99.90;;;;;;4173487;28;20033;-59
2021/10/19 06:05:30;;;;;;;16.17;7.70;;;7.50;99.90;;;;;;4174217;28;20025;-60
2021/10/19 06:07:31;;;;;;;15.63;6.23;;;7.50;99.90;;;;;;4173776;28;20347;-60
2021/10/19 06:09:32;;;;;;;11.90;7.10;;;7.70;99.90;;;;;;4173924;28;20095;-60
2021/10/19 06:11:33;;;;;;;11.27;6.17;;;7.90;99.90;;;;;;4173762;28;20052;-60
2021/10/19 06:13:34;;;;;;;13.80;6.60;;;8.00;99.90;;;;;;4172703;28;20094;-59
2021/10/19 06:15:36;;;;;;;15.90;7.40;;;8.10;99.90;;;;;;4173923;28;20033;-60
2021/10/19 06:17:37;;;;;;;15.03;7.27;;;8.40;99.90;;;;;;4173153;28;20058;-60
2021/10/19 06:19:38;;;;;;;11.53;7.27;;;8.70;99.90;;;;;;4174287;28;20025;-59
2021/10/19 06:21:40;;;;;;;14.13;7.00;;;8.80;99.90;;;;;;4172051;28;20044;-59
2021/10/19 06:23:41;;;;;;;13.90;5.77;;;9.10;99.90;;;;;;4173779;28;20028;-59
2021/10/19 06:25:42;;;;;;;9.33;6.33;;;9.30;99.90;;;;;;4172294;28;20110;-57
2021/10/19 06:27:43;;;;;;;14.73;6.43;;;9.40;99.90;;;;;;4173825;28;20037;-59
2021/10/19 06:29:45;;;;;;;11.63;7.37;;;9.40;99.90;;;;;;4172344;28;20070;-59
2021/10/19 06:31:46;;;;;;;12.30;6.90;;;9.40;99.90;;;;;;4174374;28;20487;-59
2021/10/19 06:33:47;;;;;;;13.37;6.83;;;9.50;99.90;;;;;;4173117;28;20025;-59
2021/10/19 06:35:48;;;;;;;12.13;6.00;;;9.60;99.90;;;;;;4173858;28;20363;-58
2021/10/19 06:37:49;;;;;;;11.43;6.83;;;9.80;99.90;;;;;;4172560;28;20098;-59
2021/10/19 06:39:50;;;;;;;13.30;7.33;;;10.00;99.90;;;;;;4173594;28;20083;-59
2021/10/19 06:41:51;;;;;;;9.77;6.50;;;10.10;99.90;;;;;;4172754;28;20334;-60
2021/10/19 06:43:53;;;;;;;10.40;6.07;;;10.10;99.90;;;;;;4172212;28;20114;-59
2021/10/19 06:45:54;;;;;;;14.63;6.57;;;10.00;99.90;;;;;;4173055;28;20075;-57
2021/10/19 06:47:55;;;;;;;10.97;6.77;;;10.10;99.90;;;;;;4173270;28;20908;-59
2021/10/19 06:49:57;;;;;;;11.30;6.97;;;10.40;99.90;;;;;;4172888;28;20095;-59
2021/10/19 06:51:58;;;;;;;13.50;6.33;;;10.70;99.90;;;;;;4171730;28;20111;-59
2021/10/19 06:53:59;;;;;;;13.50;6.93;;;10.90;99.90;;;;;;4173412;28;20036;-60
2021/10/19 06:56:01;;;;;;;12.70;6.10;;;10.80;99.90;;;;;;4172298;28;20051;-60
2021/10/19 06:58:02;;;;;;;15.23;7.27;;;10.80;99.90;;;;;;4173322;28;20091;-59
2021/10/19 07:00:05;;;;;;;13.07;6.90;;;11.10;99.90;;;;;;4171136;28;20045;-60
2021/10/19 07:02:07;;;;;;;11.80;6.17;;;11.10;99.90;;;;;;4173551;28;20075;-60
2021/10/19 07:04:08;;;;;;;11.60;6.27;;;11.10;99.90;;;;;;4172239;28;20033;-60
2021/10/19 07:06:10;;;;;;;12.13;6.53;;;11.20;99.90;;;;;;4172811;28;20045;-59
2021/10/19 07:08:11;;;;;;;15.73;7.97;;;11.10;99.90;;;;;;4172794;28;20445;-59
2021/10/19 07:10:13;;;;;;;14.93;7.30;;;11.40;99.90;;;;;;4172160;28;20159;-59
2021/10/19 07:12:16;;;;;;;12.20;7.00;;;11.80;99.90;;;;;;4172126;28;20079;-59
2021/10/19 07:14:17;;;;;;;11.50;6.50;;;12.00;99.90;;;;;;4171879;28;20086;-60
2021/10/19 07:16:18;;;;;;;15.63;7.20;;;12.30;99.90;;;;;;4154787;28;20442;-59
2021/10/19 07:18:21;;;;;;;14.13;7.30;;;12.70;99.90;;;;;;4154085;28;20083;-60
2021/10/19 07:20:22;;;;;;;13.30;6.70;;;12.80;99.70;;;;;;4173702;28;20111;-59
2021/10/19 07:22:25;;;;;;;16.53;6.57;;;12.90;99.50;;;;;;4171982;28;20551;-60
2021/10/19 07:24:26;;;;;;;14.33;6.77;;;13.00;99.40;;;;;;4173742;28;20033;-58
2021/10/19 07:26:27;;;;;;;8.43;5.57;;;13.30;99.00;;;;;;4172680;28;20025;-61
2021/10/19 07:28:28;;;;;;;9.40;6.53;;;13.60;98.60;;;;;;4172787;28;20040;-57
2021/10/19 07:30:29;;;;;;;12.37;6.30;;;13.60;98.00;;;;;;4173396;28;20546;-60
2021/10/19 07:32:30;;;;;;;10.40;5.97;;;13.60;97.70;;;;;;4176699;28;20040;-60
2021/10/19 07:34:31;;;;;;;11.43;6.13;;;13.50;98.00;;;;;;4175644;28;20041;-60
2021/10/19 07:36:32;;;;;;;15.87;6.50;;;13.30;98.20;;;;;;4177176;28;20036;-60
2021/10/19 07:38:34;;;;;;;10.50;5.37;;;13.10;98.30;;;;;;4174881;28;20037;-60
2021/10/19 07:40:35;;;;;;;9.20;6.10;;;13.30;98.20;;;;;;4175813;28;20083;-60
2021/10/19 07:42:37;;;;;;;8.87;5.83;;;13.60;97.70;;;;;;4175920;28;20412;-61
2021/10/19 07:44:39;;;;;;;8.37;5.30;;;13.90;97.30;;;;;;4175153;28;20497;-59
2021/10/19 07:46:40;;;;;;;14.33;6.37;;;14.00;97.00;;;;;;4176633;28;20025;-59
2021/10/19 07:48:41;;;;;;;14.93;5.73;;;13.80;97.10;;;;;;4175322;28;20037;-60
2021/10/19 07:50:47;;;;;;;10.57;6.27;;;13.60;97.40;;;;;;4176708;28;20021;-60
2021/10/19 07:52:50;;;;;;;9.07;5.47;;;13.60;97.60;;;;;;4175614;28;20044;-61
2021/10/19 07:54:51;;;;;;;9.77;5.00;;;13.80;97.40;;;;;;4176840;28;20032;-62
2021/10/19 07:56:52;;;;;;;10.13;6.07;;;14.00;97.20;;;;;;4174692;28;20087;-60
2021/10/19 07:58:53;;;;;;;11.30;5.47;;;14.20;96.80;;;;;;4175952;28;20122;-60
2021/10/19 08:00:55;;;;;;;9.07;5.70;;;14.10;96.50;;;;;;4175226;28;20554;-60
2021/10/19 08:02:57;;;;;;;8.00;5.20;;;14.10;96.70;;;;;;4176273;28;20087;-60
2021/10/19 08:04:58;;;;;;;7.90;4.77;;;13.90;96.70;;;;;;4174040;28;20091;-60
2021/10/19 08:07:01;;;;;;;7.17;5.10;;;13.80;96.70;;;;;;4176504;28;20033;-60
2021/10/19 08:09:03;;;;;;;9.53;5.40;;;13.40;96.90;;;;;;4174962;28;20032;-61
2021/10/19 08:11:06;;;;;;;7.53;4.83;;;13.50;97.30;;;;;;4176166;28;20078;-60
2021/10/19 08:13:11;;;;;;;8.27;5.20;;;13.70;97.20;;;;;;4174409;28;20057;-54
2021/10/19 08:15:13;;;;;;;10.53;6.00;;;14.30;96.90;;;;;;4175780;28;20040;-60
2021/10/19 08:17:14;;;;;;;9.73;5.40;;;14.30;96.40;;;;;;4174268;28;20053;-60
2021/10/19 08:19:16;;;;;;;8.63;5.43;;;14.30;96.40;;;;;;4175926;28;20033;-58
2021/10/19 08:21:17;;;;;;;10.47;5.63;;;14.20;96.50;;;;;;4175259;28;20052;-58
2021/10/19 08:23:20;;;;;;;10.77;6.47;;;14.30;96.60;;;;;;4174860;28;20021;-58
2021/10/19 08:25:21;;;;;;;11.30;5.80;;;14.50;96.60;;;;;;4176052;28;20132;-60
2021/10/19 08:27:25;;;;;;;9.43;5.47;;;14.30;96.40;;;;;;4174560;28;20564;-59
2021/10/19 08:29:26;;;;;;;11.20;5.67;;;14.40;96.60;;;;;;4157530;28;21020;-59
2021/10/19 08:31:28;;;;;;;10.47;5.17;;;14.50;96.50;;;;;;4174008;28;20025;-60
2021/10/19 08:33:29;;;;;;;7.13;5.00;;;14.30;96.50;;;;;;4175855;28;20465;-59
2021/10/19 08:35:31;;;;;;;14.63;5.77;;;14.20;96.70;;;;;;4174730;28;20110;-60
2021/10/19 08:37:32;;;;;;;9.53;5.77;;;14.20;96.60;;;;;;4175463;28;20384;-60
2021/10/19 08:39:34;;;;;;;8.87;6.07;;;14.40;96.50;;;;;;4174454;28;20037;-58
2021/10/19 08:41:37;;;;;;;13.63;6.33;;;14.60;96.50;;;;;;4174674;28;20049;-59
2021/10/19 08:43:38;;;;;;;10.53;6.13;;;14.90;96.20;;;;;;4174592;28;20115;-60
2021/10/19 08:45:40;;;;;;;10.97;6.27;;;15.10;95.90;;;;;;4175518;28;20025;-54
2021/10/19 08:47:47;;;;;;;9.70;6.17;;;15.10;95.90;;;;;;4174209;28;20481;-61
2021/10/19 08:49:48;;;;;;;8.67;6.37;;;15.20;95.90;;;;;;4175708;28;20737;-58
2021/10/19 08:51:49;;;;;;;11.87;5.90;;;15.40;95.90;;;;;;4174001;28;20053;-59
2021/10/19 08:53:50;;;;;;;10.17;6.20;;;15.60;95.60;;;;;;4174705;28;20025;-60
2021/10/19 08:55:52;;;;;;;8.67;5.70;;;15.20;95.30;;;;;;4175379;28;20090;-59
2021/10/19 08:57:56;;;;;;;11.17;6.37;;;15.00;95.50;;;;;;4174012;28;20029;-60
2021/10/19 08:59:58;;;;;;;9.67;5.93;;;15.00;95.90;;;;;;4174832;28;20523;-59
2021/10/19 09:01:59;;;;;;;14.83;7.80;;;15.10;95.70;;;;;;4174488;28;20087;-59
2021/10/19 09:04:04;;;;;;;12.73;7.07;;;15.30;95.60;;;;;;4157113;28;20037;-60
2021/10/19 09:06:05;;;;;;;9.43;5.70;;;15.30;95.60;;;;;;4173130;28;20045;-59
2021/10/19 09:08:11;;;;;;;9.23;6.13;;;15.50;95.70;;;;;;4174825;28;20029;-58
2021/10/19 09:10:16;;;;;;;9.65;5.57;;;15.50;95.30;;;;;;4174298;28;20121;-59
2021/10/19 09:12:22;;;;;;;9.55;5.78;;;15.40;95.00;;;;;;4174777;28;20076;-60
2021/10/19 09:14:35;;;;;;;7.28;5.70;;;15.40;95.40;;;;;;4173495;28;20094;-61
2021/10/19 09:16:38;;;;;;;9.20;5.72;;;15.70;94.70;;;;;;4174690;28;20040;-60
2021/10/19 09:18:39;;;;;;;9.50;5.80;;;15.60;94.70;;;;;;4174272;28;20033;-60
2021/10/19 09:20:53;;;;;;;12.90;5.45;;;15.60;94.80;;;;;;4174986;28;20481;-60
2021/10/19 09:23:01;;;;;;;8.73;5.28;;;15.60;94.50;;;;;;4173258;28;20455;-58
2021/10/19 09:25:02;;;;;;;9.35;5.00;;;15.70;94.20;;;;;;4175350;28;20036;-60
2021/10/19 09:27:04;;;;;;;9.27;6.05;;;15.60;94.40;;;;;;4173592;28;20033;-60
2021/10/19 09:29:12;;;;;;;7.03;5.25;;;15.60;94.20;;;;;;4175311;28;20041;-60
2021/10/19 09:31:14;;;;;;;8.32;4.97;;;15.60;93.80;;;;;;4172740;28;20098;-60
2021/10/19 09:33:17;;;;;;;9.05;5.55;;;15.50;93.90;;;;;;4174364;28;20079;-60
2021/10/19 09:35:22;;;;;;;9.63;5.10;;;15.30;94.20;;;;;;4173649;28;20468;-61
2021/10/19 09:37:23;;;;;;;8.45;5.38;;;15.20;94.30;;;;;;4173558;28;20115;-60
2021/10/19 09:39:31;;;;;;;7.10;4.70;;;15.30;94.20;;;;;;4155987;28;20064;-59
2021/10/19 09:41:45;;;;;;;10.32;5.28;;;15.30;94.30;;;;;;4172990;28;20139;-61
2021/10/19 09:43:46;;;;;;;7.65;4.53;;;15.20;94.10;;;;;;4173110;28;20049;-60
2021/10/19 09:45:51;;;;;;;9.13;4.53;;;15.20;94.30;;;;;;4174000;28;20082;-58
2021/10/19 09:47:55;;;;;;;9.48;5.53;;;15.20;94.40;;;;;;4174697;28;20017;-60
2021/10/19 09:49:57;;;;;;;11.85;5.32;;;15.40;94.50;;;;;;4173803;28;20033;-60
2021/10/19 09:52:00;;;;;;;11.20;5.53;;;15.20;94.10;;;;;;4174504;28;20041;-60
2021/10/19 09:54:02;;;;;;;9.43;5.45;;;14.90;94.20;;;;;;4172744;28;20033;-60
2021/10/19 09:56:03;;;;;;;9.25;6.07;;;14.60;94.30;;;;;;4174701;28;20102;-60
2021/10/19 09:58:05;;;;;;;12.85;5.90;;;14.40;94.60;;;;;;4173412;28;20086;-60
2021/10/19 10:00:07;;;;;;;14.25;7.70;;;14.30;94.80;;;;;;4173452;28;20032;-59
2021/10/19 10:02:13;;;;;;;11.60;7.03;;;14.10;95.10;;;;;;4173015;28;20041;-60
2021/10/19 10:04:14;;;;;;;12.13;5.83;;;14.00;95.00;;;;;;4173956;28;20045;-59
2021/10/19 10:06:16;;;;;;;11.70;6.67;;;13.80;95.40;;;;;;4172110;28;20045;-60
2021/10/19 10:08:19;;;;;;;11.07;5.93;;;13.70;95.50;;;;;;4173963;28;20040;-60
2021/10/19 10:10:22;;;;;;;12.97;7.17;;;13.50;95.60;;;;;;4172461;28;20064;-60
2021/10/19 10:12:31;;;;;;;9.50;6.20;;;13.50;95.70;;;;;;4173509;28;20041;-60
2021/10/19 10:14:48;;;;;;;12.67;7.00;;;13.60;95.50;;;;;;4173009;28;20033;-61
2021/10/19 10:16:50;;;;;;;11.53;7.00;;;13.80;95.70;;;;;;4173645;28;20485;-61
2021/10/19 10:18:51;;;;;;;11.73;7.13;;;13.80;95.50;;;;;;4173494;28;20752;-60
2021/10/19 10:20:52;;;;;;;11.77;7.70;;;13.90;95.60;;;;;;4155470;28;20049;-60
2021/10/19 10:22:53;;;;;;;12.20;6.93;;;13.80;96.00;;;;;;4156739;28;20076;-60
2021/10/19 10:25:09;;;;;;;14.43;7.23;;;13.70;96.00;;;;;;4157239;28;20029;-60
2021/10/19 10:27:16;;;;;;;14.03;6.63;;;13.70;95.90;;;;;;4156904;28;20041;-59
2021/10/19 10:29:17;;;;;;;10.13;7.13;;;13.50;96.00;;;;;;4155936;28;20029;-58
2021/10/19 10:31:23;;;;;;;13.50;6.40;;;13.60;96.20;;;;;;4156657;28;20433;-58
2021/10/19 10:33:36;;;;;;;13.00;6.60;;;13.60;96.00;;;;;;4156577;28;20125;-58